Tiempo atmosférico en la estación meteorológica de Villadepera, Zamora (790 m.)



Fecha
DESCASC
Temp. máxima en grados centígrados (hora)
DESCASC
Temp. mínima en grados centígrados (hora)
DESCASC
Temp. media en grados centígrados
DESCASC
Racha de viento máxima en m/sg (hora)
DESCASC
Velocidad máxima media en intervalos de 10 minutos(hora)
DESCASC
Precipitaciones diarias en mm
DESCASC
Precipitaciones de 00:00 a 06:00 en mm
DESCASC
Precipitaciones de 06:00 a 12:00 en mm
DESCASC
Precipitaciones de 12:00 a 18:00 en mm
DESCASC
Precipitaciones de 18:00 a 24:00 en mm
DESCASC
10-07-2020 32.5 (19:10) 16.3 (07:10) 24.4 10.28 (23:59) 6.94 (01:30) 0 0 0 0 0
09-07-2020 33.3 (19:10) 17.6 (07:40) 25.4 10 (21:10) 6.39 (19:50) 0 0 0 0 0
08-07-2020 34.5 (15:30) 18.5 (08:20) 26.5 16.67 (21:20) 8.33 (23:10) 0 0 0 0 0
07-07-2020 35.2 (19:20) 14 (07:00) 24.6 11.39 (08:30) 8.06 (01:40) 0 0 0 0 0
06-07-2020 34.3 (19:20) 17.3 (00:00) 25.8 11.39 (10:40) 7.5 (03:00) 0 0 0 0 0
05-07-2020 34.6 (19:20) 16.4 (06:50) 25.5 8.61 (11:40) 5.83 (05:10) 0 0 0 0 0
04-07-2020 32.3 (19:10) 11.8 (07:00) 22 8.06 (02:50) 5.56 (02:50) 0 0 0 0 0
03-07-2020 28.8 (19:20) 10.3 (06:10) 19.5 9.72 (08:10) 7.22 (10:00) 0 0 0 0 0
02-07-2020 24.8 (19:10) 12.2 (00:00) 18.5 15.83 (14:40) 8.61 (18:30) 0 0 0 0 0
01-07-2020 28.9 (19:20) 16.6 (00:00) 22.8 12.78 (18:40) 8.61 (14:50) 0 0 0 0 0
30-06-2020 34.1 (19:20) 15.8 (00:00) 24.9 13.33 (16:10) 7.22 (21:20) 0 0 0 0 0
29-06-2020 32.3 (19:20) 14.4 (00:00) 23.3 7.5 (15:40) 4.44 (00:20) 0 0 0 0 0
28-06-2020 28.6 (19:10) 13.2 (00:00) 20.9 13.06 (15:00) 7.5 (19:20) 0 0 0 0 0
27-06-2020 26 (19:10) 14 (00:00) 20 10.83 (03:50) 7.78 (03:50) 0 0 0 0 0
26-06-2020 25.7 (19:20) 12.9 (00:00) 19.3 13.06 (20:00) 8.89 (19:40) 0 0 0 0 0
25-06-2020 29.2 (19:10) 15.1 (00:00) 22.2 13.61 (17:50) 8.33 (17:50) 0 0 0 0 0
24-06-2020 30.9 (16:10) 17.5 (00:00) 24.2 20.56 (16:50) 13.33 (16:50) 27.8 0 17.4 10.4 0
23-06-2020 36.1 (19:10) 17.2 (00:00) 26.6 11.67 (18:10) 6.39 (06:00) 0 0 0 0 0
22-06-2020 32.4 (19:20) 14.1 (00:00) 23.3 12.22 (01:10) 8.61 (01:10) 0 0 0 0 0
21-06-2020 30.5 (19:10) 9.7 (00:00) 20.1 8.06 (18:00) 5.83 (01:00) 0 0 0 0 0
20-06-2020 28.4 (19:10) 11.2 (00:00) 19.8 11.67 (19:00) 8.06 (20:10) 0 0 0 0 0
19-06-2020 26.5 (19:10) 10.3 (00:00) 18.4 10 (17:30) 7.22 (19:10) 0 0 0 0 0
18-06-2020 24.8 (19:10) 9.4 (07:10) 17.1 9.44 (18:20) 5.83 (18:20) 0 0 0 0 0
17-06-2020 22.1 (19:20) 8 (00:00) 15.1 9.17 (17:40) 6.39 (00:30) 0 0 0 0 0
16-06-2020 20.6 (19:10) 9.8 (00:00) 15.2 15 (15:50) 10.83 (16:10) 0 0 0 0 0
15-06-2020 19.4 (15:20) 9.7 (00:00) 14.5 12.78 (17:20) 8.89 (17:40) 0 0 0 0 0

Gráficas

Temp. máximas Temp. mínimas Temp. medias Precipitaciones Rachas de viento máximas Velocidades máximas media en intervalos de 10 minutos

Datos horarios

Fecha y hora oficial Temperatura (ºC) Velocidad del viento (km/h) Dirección del viento Racha (km/h) Dirección de racha Precipitación (mm) Presión (hPa) Tendencia (hPa) Humedad (%)
2020-07-14 23:00:00 21.7 28 Nordeste 46 Nordeste 0 -- -- 46
2020-07-14 22:00:00 24.4 17 Nordeste 27 Nordeste 0 -- -- 34
2020-07-14 21:00:00 26.9 13 Nordeste 22 Nordeste 0 -- -- 28
2020-07-14 20:00:00 28.7 14 Nordeste 26 Este 0 -- -- 24
2020-07-14 19:00:00 29.7 15 Nordeste 26 Nordeste 0 -- -- 22
2020-07-14 18:00:00 29.3 12 Nordeste 29 Nordeste 0 -- -- 22
2020-07-14 17:00:00 28.9 12 Este 28 Este 0 -- -- 23
2020-07-14 16:00:00 28.4 15 Este 29 Nordeste 0 -- -- 22
2020-07-14 15:00:00 27.5 13 Este 37 Nordeste 0 -- -- 22
2020-07-14 14:00:00 25.9 18 Este 34 Este 0 -- -- 22
2020-07-14 13:00:00 24.9 19 Este 33 Nordeste 0 -- -- 22
2020-07-14 12:00:00 22.3 20 Nordeste 33 Este 0 -- -- 28
2020-07-14 11:00:00 20.8 23 Este 36 Nordeste 0 -- -- 30
2020-07-14 10:00:00 18.8 21 Nordeste 30 Este 0 -- -- 39
2020-07-14 09:00:00 16.2 16 Nordeste 27 Nordeste 0 -- -- 57
2020-07-14 08:00:00 14 18 Nordeste 24 Nordeste 0 -- -- 65
2020-07-14 07:00:00 13.5 14 Nordeste 22 Nordeste 0 -- -- 67
2020-07-14 06:00:00 14.5 17 Nordeste 25 Nordeste 0 -- -- 62
2020-07-14 05:00:00 15.2 16 Nordeste 28 Este 0 -- -- 55
2020-07-14 04:00:00 16.1 17 Nordeste 34 Este 0 -- -- 47
2020-07-14 03:00:00 16.9 21 Nordeste 36 Nordeste 0 -- -- 51
2020-07-14 02:00:00 17.6 20 Este 32 Nordeste 0 -- -- 54
2020-07-14 01:00:00 19.2 18 Este 34 Este 0 -- -- 56
2020-07-14 00:00:00 21.2 22 Nordeste 35 Este 0 -- -- 46
2020-07-13 23:00:00 23.4 15 Nordeste 26 Nordeste 0 -- -- 46
2020-07-13 22:00:00 25 10 Nordeste 17 Nordeste 0 -- -- 41
2020-07-13 21:00:00 27.7 12 Nordeste 25 Nordeste 0 -- -- 36
2020-07-13 20:00:00 29.4 12 Nordeste 24 Nordeste 0 -- -- 33
2020-07-13 19:00:00 30.5 10 Nordeste 25 Nordeste 0 -- -- 32
2020-07-13 18:00:00 29.8 15 Nordeste 31 Norte 0 -- -- 33
2020-07-13 17:00:00 29.7 9 Este 29 Nordeste 0 -- -- 34
2020-07-13 16:00:00 29.2 14 Este 31 Nordeste 0 -- -- 36
2020-07-13 15:00:00 28 16 Norte 32 Este 0 -- -- 38
2020-07-13 14:00:00 27 18 Este 40 Este 0 -- -- 41
2020-07-13 13:00:00 25.2 22 Nordeste 35 Nordeste 0 -- -- 43
2020-07-13 12:00:00 23.2 21 Nordeste 35 Este 0 -- -- 47
2020-07-13 11:00:00 21.2 21 Nordeste 39 Este 0 -- -- 55
2020-07-13 10:00:00 19 26 Nordeste 41 Nordeste 0 -- -- 63
2020-07-13 09:00:00 17.3 25 Nordeste 42 Nordeste 0 -- -- 71
2020-07-13 08:00:00 15.8 27 Nordeste 36 Nordeste 0 -- -- 84
2020-07-13 07:00:00 15.3 24 Nordeste 35 Nordeste 0 -- -- 88
2020-07-13 06:00:00 15.9 25 Nordeste 36 Nordeste 0 -- -- 87
2020-07-13 05:00:00 16.3 23 Nordeste 35 Nordeste 0 -- -- 86
2020-07-13 04:00:00 16.7 20 Nordeste 31 Nordeste 0 -- -- 86
2020-07-13 03:00:00 17.4 17 Nordeste 31 Nordeste 0 -- -- 84
2020-07-13 02:00:00 18.6 21 Nordeste 34 Nordeste 0 -- -- 81
2020-07-13 01:00:00 20.9 24 Nordeste 36 Nordeste 0 -- -- 67
2020-07-13 00:00:00 22.9 14 Nordeste 21 Nordeste 0 -- -- 60
2020-07-12 23:00:00 24.1 13 Nordeste 17 Nordeste 0 -- -- 50
2020-07-12 22:00:00 25.3 10 Nordeste 20 Nordeste 0 -- -- 46
2020-07-12 21:00:00 28.3 11 Norte 23 Norte 0 -- -- 37
2020-07-12 20:00:00 29.8 13 Norte 24 Norte 0 -- -- 36
2020-07-12 19:00:00 30.4 12 Nordeste 25 Norte 0 -- -- 34
2020-07-12 18:00:00 30 12 Noroeste 28 Norte 0 -- -- 36
2020-07-12 17:00:00 29.3 13 Norte 24 Norte 0 -- -- 38
2020-07-12 16:00:00 28.7 11 Norte 27 Nordeste 0 -- -- 41
2020-07-12 15:00:00 27.5 15 Nordeste 28 Nordeste 0 -- -- 47
2020-07-12 14:00:00 26.5 17 Nordeste 28 Este 0 -- -- 51
2020-07-12 13:00:00 25.2 16 Nordeste 28 Nordeste 0 -- -- 56
2020-07-12 12:00:00 22.7 10 Nordeste 18 Nordeste 0 -- -- 67
2020-07-12 11:00:00 21.7 6 Norte 11 Norte 0 -- -- 72
2020-07-12 10:00:00 20.3 3 Este 14 Este 0 -- -- 78
2020-07-12 09:00:00 17.7 8 Este 30 Este 0 -- -- 87
2020-07-12 08:00:00 17.3 24 Este 42 Este 0 -- -- 89
2020-07-12 07:00:00 16.8 18 Nordeste 37 Nordeste 0 -- -- 87
2020-07-12 06:00:00 17.1 15 Norte 24 Noroeste 0.8 -- -- 86
2020-07-12 05:00:00 16.9 23 Sudoeste 39 Sudoeste 0 -- -- 88
2020-07-12 04:00:00 16.6 9 Sudeste 13 Sudeste 0 -- -- 86
2020-07-12 03:00:00 17.1 14 Nordeste 24 Norte 0.2 -- -- 84
2020-07-12 02:00:00 17.1 19 Noroeste 38 Noroeste 1.4 -- -- 83
2020-07-12 01:00:00 17.9 27 Noroeste 63 Norte 1.2 -- -- 79
2020-07-12 00:00:00 17.3 22 Norte 57 Sudoeste 3 -- -- 92
2020-07-11 23:00:00 19.7 47 Sudoeste 82 Sudoeste 0.2 -- -- 74
2020-07-11 22:00:00 28 18 Nordeste 28 Nordeste 0 -- -- 36
2020-07-11 21:00:00 28.8 12 Nordeste 15 Nordeste 0 -- -- 32
2020-07-11 20:00:00 30.6 12 Nordeste 17 Nordeste 0 -- -- 30
2020-07-11 19:00:00 32.4 9 Nordeste 22 Nordeste 0 -- -- 27
2020-07-11 18:00:00 32.5 6 Noroeste 16 Nordeste 0 -- -- 28
2020-07-11 17:00:00 31.4 8 Norte 20 Este 0 -- -- 31
2020-07-11 16:00:00 30.5 12 Sudeste 26 Este 0 -- -- 34
2020-07-11 15:00:00 29.4 16 Nordeste 33 Nordeste 0 -- -- 38
2020-07-11 14:00:00 27.5 19 Este 33 Este 0 -- -- 42
2020-07-11 13:00:00 25.1 23 Nordeste 34 Nordeste 0 -- -- 46
2020-07-11 12:00:00 23 18 Nordeste 35 Nordeste 0 -- -- 51
2020-07-11 11:00:00 19.9 23 Nordeste 37 Nordeste 0 -- -- 58
2020-07-11 10:00:00 17.7 25 Nordeste 40 Nordeste 0 -- -- 66
2020-07-11 09:00:00 15.5 25 Nordeste 41 Nordeste 0 -- -- 73
2020-07-11 08:00:00 13.9 27 Nordeste 45 Nordeste 0 -- -- 79
2020-07-11 07:00:00 13.3 24 Nordeste 35 Nordeste 0 -- -- 82
2020-07-11 06:00:00 13.7 23 Nordeste 42 Nordeste 0 -- -- 81
2020-07-11 05:00:00 14.2 32 Nordeste 44 Nordeste 0 -- -- 81
2020-07-11 04:00:00 14.8 26 Nordeste 38 Nordeste 0 -- -- 81
2020-07-11 03:00:00 15.7 25 Nordeste 38 Nordeste 0 -- -- 78
2020-07-11 02:00:00 16.4 29 Nordeste 41 Nordeste 0 -- -- 76
2020-07-11 01:00:00 18.3 24 Nordeste 46 Nordeste 0 -- -- 71
2020-07-11 00:00:00 21.3 19 Nordeste 37 Nordeste 0 -- -- 63
2020-07-10 23:00:00 23.7 14 Nordeste 28 Nordeste 0 -- -- 53
2020-07-10 22:00:00 26.5 12 Nordeste 16 Nordeste 0 -- -- 38
2020-07-10 21:00:00 29.3 9 Nordeste 19 Este 0 -- -- 33
2020-07-10 20:00:00 30.1 10 Nordeste 22 Nordeste 0 -- -- 30
2020-07-10 19:00:00 31.3 14 Nordeste 24 Nordeste 0 -- -- 29
2020-07-10 18:00:00 31.5 6 Nordeste 25 Este 0 -- -- 31
2020-07-10 17:00:00 30.8 6 Nordeste 27 Nordeste 0 -- -- 30
2020-07-10 16:00:00 29.9 16 Nordeste 27 Nordeste 0 -- -- 35
2020-07-10 15:00:00 28.9 15 Nordeste 31 Este 0 -- -- 36
2020-07-10 14:00:00 27.8 18 Este 33 Nordeste 0 -- -- 41
2020-07-10 13:00:00 26.4 19 Este 29 Este 0 -- -- 45
2020-07-10 12:00:00 24.6 17 Nordeste 28 Nordeste 0 -- -- 51
2020-07-10 11:00:00 22.6 14 Este 28 Este 0 -- -- 59
2020-07-10 10:00:00 20.6 14 Nordeste 25 Nordeste 0 -- -- 67
2020-07-10 09:00:00 18.6 15 Nordeste 30 Este 0 -- -- 77
2020-07-10 08:00:00 16.8 21 Nordeste 33 Nordeste 0 -- -- 81
2020-07-10 07:00:00 16.4 15 Nordeste 27 Nordeste 0 -- -- 79
2020-07-10 06:00:00 17.2 20 Nordeste 27 Nordeste 0 -- -- 74
2020-07-10 05:00:00 18.1 15 Nordeste 24 Nordeste 0 -- -- 68
2020-07-10 04:00:00 18.8 15 Nordeste 33 Nordeste 0 -- -- 65
2020-07-10 03:00:00 19.6 22 Nordeste 34 Nordeste 0 -- -- 64
2020-07-10 02:00:00 20.4 21 Nordeste 35 Nordeste 0 -- -- 62
2020-07-10 01:00:00 21.2 15 Nordeste 24 Nordeste 0 -- -- 54
2020-07-10 00:00:00 21.7 12 Nordeste 16 Este 0 -- -- 50
2020-07-09 23:00:00 23 13 Este 20 Este 0 -- -- 46
2020-07-09 22:00:00 26.1 11 Sudeste 36 Sudeste 0 -- -- 36
2020-07-09 21:00:00 29.9 8 Norte 28 Noroeste 0 -- -- 31
2020-07-09 20:00:00 31.2 18 Noroeste 32 Noroeste 0 -- -- 30
2020-07-09 19:00:00 32.5 9 Norte 23 Nordeste 0 -- -- 27
2020-07-09 18:00:00 30.7 13 Norte 29 Este 0 -- -- 30
2020-07-09 17:00:00 32.3 16 Nordeste 35 Nordeste 0 -- -- 27
2020-07-09 16:00:00 32.1 7 Este 26 Norte 0 -- -- 31
2020-07-09 15:00:00 30.7 10 Norte 20 Norte 0 -- -- 33
2020-07-09 14:00:00 30 7 Nordeste 16 Norte 0 -- -- 34
2020-07-09 13:00:00 28.6 6 Nordeste 14 Este 0 -- -- 38
2020-07-09 12:00:00 26.8 7 Este 24 Este 0 -- -- 43
2020-07-09 11:00:00 24.7 13 Este 24 Este 0 -- -- 46
2020-07-09 10:00:00 22.3 17 Nordeste 28 Este 0 -- -- 53
2020-07-09 09:00:00 20.4 18 Nordeste 27 Nordeste 0 -- -- 59
2020-07-09 08:00:00 17.8 14 Nordeste 23 Nordeste 0 -- -- 66
2020-07-09 07:00:00 17.8 16 Nordeste 31 Nordeste 0 -- -- 66
2020-07-09 06:00:00 18.1 19 Nordeste 31 Nordeste 0 -- -- 65
2020-07-09 05:00:00 18.2 19 Nordeste 26 Nordeste 0 -- -- 65
2020-07-09 04:00:00 18.3 14 Nordeste 24 Nordeste 0 -- -- 65
2020-07-09 03:00:00 19.2 15 Nordeste 30 Nordeste 0 -- -- 62
2020-07-09 02:00:00 20.4 19 Nordeste 29 Nordeste 0 -- -- 58
2020-07-09 01:00:00 21.3 16 Nordeste 25 Nordeste 0 -- -- 49
2020-07-09 00:00:00 22.4 13 Norte 48 Nordeste 0 -- -- 48
2020-07-08 23:00:00 23.7 29 Nordeste 48 Este 0 -- -- 44
2020-07-08 22:00:00 23.9 18 Nordeste 60 Norte 0 -- -- 45
2020-07-08 21:00:00 27.5 21 Norte 31 Norte 0 -- -- 33
2020-07-08 20:00:00 29.4 13 Norte 30 Norte 0 -- -- 33
2020-07-08 19:00:00 30.7 16 Norte 33 Norte 0 -- -- 28
2020-07-08 18:00:00 32.1 14 Norte 22 Norte 0 -- -- 29
2020-07-08 17:00:00 32 6 Sur 27 Oeste 0 -- -- 26
2020-07-08 16:00:00 34.2 5 Sudoeste 21 Este 0 -- -- 23
2020-07-08 15:00:00 33.7 14 Este 27 Este 0 -- -- 24
2020-07-08 14:00:00 32 12 Nordeste 24 Nordeste 0 -- -- 27
2020-07-08 13:00:00 29.4 13 Nordeste 28 Este 0 -- -- 35
2020-07-08 12:00:00 27.2 17 Este 30 Este 0 -- -- 38
2020-07-08 11:00:00 25 21 Este 29 Este 0 -- -- 42
2020-07-08 10:00:00 22.1 21 Nordeste 30 Nordeste 0 -- -- 48
2020-07-08 09:00:00 19.7 18 Nordeste 29 Nordeste 0 -- -- 55
2020-07-08 08:00:00 18.6 21 Nordeste 30 Nordeste 0 -- -- 58
2020-07-08 07:00:00 18.6 19 Nordeste 28 Nordeste 0 -- -- 59
2020-07-08 06:00:00 18.8 17 Nordeste 27 Nordeste 0 -- -- 57
2020-07-08 05:00:00 19.3 21 Nordeste 30 Nordeste 0 -- -- 55
2020-07-08 04:00:00 20.3 14 Nordeste 20 Nordeste 0 -- -- 48
2020-07-08 03:00:00 21.4 12 Nordeste 21 Nordeste 0 -- -- 41
2020-07-08 02:00:00 23.4 9 Este 15 Nordeste 0 -- -- 34
2020-07-08 01:00:00 25.9 4 Nordeste 12 Nordeste 0 -- -- 28
2020-07-08 00:00:00 27.2 10 Nordeste 13 Norte 0 -- -- 26
2020-07-07 23:00:00 27.8 9 Norte 10 Norte 0 -- -- 26
2020-07-07 22:00:00 29.4 9 Noroeste 12 Noroeste 0 -- -- 22
2020-07-07 21:00:00 32.4 8 Oeste 23 Sudoeste 0 -- -- 21
2020-07-07 20:00:00 33.6 18 Oeste 30 Oeste 0 -- -- 17
2020-07-07 19:00:00 34.6 18 Sudoeste 34 Sudoeste 0 -- -- 19
2020-07-07 18:00:00 34.5 20 Sudoeste 36 Oeste 0 -- -- 17
2020-07-07 17:00:00 33.8 17 Sudoeste 28 Sudoeste 0 -- -- 19
2020-07-07 16:00:00 33.4 13 Sur 24 Sur 0 -- -- 24
2020-07-07 15:00:00 31.6 8 Sudoeste 21 Este 0 -- -- 29
2020-07-07 14:00:00 29.2 10 Nordeste 23 Este 0 -- -- 30
2020-07-07 13:00:00 26.9 16 Este 29 Este 0 -- -- 32
2020-07-07 12:00:00 24.3 14 Este 27 Este 0 -- -- 35
2020-07-07 11:00:00 21.7 18 Nordeste 33 Nordeste 0 -- -- 41
2020-07-07 10:00:00 19.2 19 Nordeste 37 Nordeste 0 -- -- 47
2020-07-07 09:00:00 16.6 26 Nordeste 41 Nordeste 0 -- -- 50
2020-07-07 08:00:00 14.9 26 Nordeste 37 Nordeste 0 -- -- 57
2020-07-07 07:00:00 14 24 Nordeste 39 Nordeste 0 -- -- 64
2020-07-07 06:00:00 14.3 24 Nordeste 38 Nordeste 0 -- -- 66
2020-07-07 05:00:00 14.4 21 Nordeste 34 Nordeste 0 -- -- 69
2020-07-07 04:00:00 15 24 Nordeste 39 Nordeste 0 -- -- 70
2020-07-07 03:00:00 16.1 26 Nordeste 39 Nordeste 0 -- -- 68
2020-07-07 02:00:00 17.5 27 Nordeste 39 Nordeste 0 -- -- 65
2020-07-07 01:00:00 19.9 25 Nordeste 39 Nordeste 0 -- -- 59
2020-07-07 00:00:00 22.1 24 Nordeste 39 Este 0 -- -- 53
2020-07-06 23:00:00 24.1 18 Nordeste 33 Este 0 -- -- 47
2020-07-06 22:00:00 26.9 17 Este 36 Este 0 -- -- 41
2020-07-06 21:00:00 30.9 11 Este 20 Este 0 -- -- 36
2020-07-06 20:00:00 32.2 9 Nordeste 23 Nordeste 0 -- -- 33
2020-07-06 19:00:00 32.9 8 Nordeste 21 Nordeste 0 -- -- 31
2020-07-06 18:00:00 32.2 9 Nordeste 24 Nordeste 0 -- -- 31
2020-07-06 17:00:00 32.3 7 Nordeste 19 Nordeste 0 -- -- 33
2020-07-06 16:00:00 31.4 8 Nordeste 22 Este 0 -- -- 36
2020-07-06 15:00:00 30.4 12 Nordeste 29 Este 0 -- -- 39
2020-07-06 14:00:00 29.2 18 Nordeste 33 Nordeste 0 -- -- 41
2020-07-06 13:00:00 27.6 19 Nordeste 32 Este 0 -- -- 44
2020-07-06 12:00:00 25.5 22 Este 39 Nordeste 0 -- -- 48
2020-07-06 11:00:00 23.6 22 Nordeste 41 Nordeste 0 -- -- 51
2020-07-06 10:00:00 21.8 21 Nordeste 36 Este 0 -- -- 58
2020-07-06 09:00:00 20.3 19 Nordeste 27 Nordeste 0 -- -- 61
2020-07-06 08:00:00 18.3 14 Nordeste 25 Nordeste 0 -- -- 70
2020-07-06 07:00:00 17.4 17 Nordeste 26 Nordeste 0 -- -- 73
2020-07-06 06:00:00 18.1 15 Nordeste 32 Nordeste 0 -- -- 71
2020-07-06 05:00:00 19.2 22 Nordeste 38 Nordeste 0 -- -- 66
2020-07-06 04:00:00 20 22 Nordeste 36 Nordeste 0 -- -- 64
2020-07-06 03:00:00 21.6 27 Nordeste 40 Nordeste 0 -- -- 64
2020-07-06 02:00:00 23.3 22 Nordeste 32 Nordeste 0 -- -- 56
2020-07-06 01:00:00 25.3 11 Norte 14 Norte 0 -- -- 43
2020-07-06 00:00:00 26.8 8 Nordeste 9 Nordeste 0 -- -- 39
2020-07-05 23:00:00 27.4 8 Norte 9 Norte 0 -- -- 39
2020-07-05 22:00:00 28.7 6 Norte 8 Norte 0 -- -- 35
2020-07-05 21:00:00 31.6 3 Nordeste 15 Nordeste 0 -- -- 30
2020-07-05 20:00:00 33.3 6 Este 14 Norte 0 -- -- 29
2020-07-05 19:00:00 33.4 7 Sudeste 17 Este 0 -- -- 28
2020-07-05 18:00:00 31.2 5 Este 22 Este 0 -- -- 29
2020-07-05 17:00:00 32.5 6 Este 19 Sur 0 -- -- 28
2020-07-05 16:00:00 31.8 9 Oeste 21 Nordeste 0 -- -- 28
2020-07-05 15:00:00 30.9 10 Nordeste 20 Nordeste 0 -- -- 29
2020-07-05 14:00:00 29.9 10 Este 26 Nordeste 0 -- -- 29
2020-07-05 13:00:00 28.7 16 Nordeste 28 Nordeste 0 -- -- 35
2020-07-05 12:00:00 26.6 20 Este 31 Este 0 -- -- 40
2020-07-05 11:00:00 24.5 19 Nordeste 28 Nordeste 0 -- -- 44
2020-07-05 10:00:00 22.3 18 Este 25 Este 0 -- -- 49
2020-07-05 09:00:00 20.1 12 Nordeste 24 Nordeste 0 -- -- 55
2020-07-05 08:00:00 17.9 16 Nordeste 31 Nordeste 0 -- -- 60
2020-07-05 07:00:00 16.6 21 Nordeste 25 Nordeste 0 -- -- 64
2020-07-05 06:00:00 17 18 Nordeste 26 Nordeste 0 -- -- 62
2020-07-05 05:00:00 17.6 21 Nordeste 26 Nordeste 0 -- -- 59
2020-07-05 04:00:00 18.3 15 Nordeste 23 Nordeste 0 -- -- 56
2020-07-05 03:00:00 19.3 17 Nordeste 27 Nordeste 0 -- -- 52
2020-07-05 02:00:00 20.3 16 Nordeste 27 Nordeste 0 -- -- 48
2020-07-05 01:00:00 22.2 13 Nordeste 15 Nordeste 0 -- -- 41
2020-07-05 00:00:00 23.1 6 Nordeste 13 Nordeste 0 -- -- 40
2020-07-04 23:00:00 24.3 9 Nordeste 13 Este 0 -- -- 35
2020-07-04 22:00:00 25.8 8 Este 17 Este 0 -- -- 33
2020-07-04 21:00:00 28.8 9 Nordeste 18 Este 0 -- -- 28
2020-07-04 20:00:00 30.5 8 Nordeste 22 Este 0 -- -- 26
2020-07-04 19:00:00 30.9 6 Norte 15 Noroeste 0 -- -- 24
2020-07-04 18:00:00 30 10 Norte 17 Nordeste 0 -- -- 24
2020-07-04 17:00:00 29.7 7 Norte 16 Nordeste 0 -- -- 25
2020-07-04 16:00:00 29.1 8 Norte 22 Nordeste 0 -- -- 23
2020-07-04 15:00:00 28 7 Norte 22 Nordeste 0 -- -- 28
2020-07-04 14:00:00 26.5 5 Norte 18 Este 0 -- -- 32
2020-07-04 13:00:00 25.2 8 Este 23 Este 0 -- -- 36
2020-07-04 12:00:00 23.2 13 Este 23 Este 0 -- -- 40
2020-07-04 11:00:00 20.7 17 Este 25 Nordeste 0 -- -- 44
2020-07-04 10:00:00 18.3 18 Nordeste 24 Nordeste 0 -- -- 55
2020-07-04 09:00:00 15.7 15 Nordeste 23 Nordeste 0 -- -- 68
2020-07-04 08:00:00 13.3 14 Nordeste 22 Nordeste 0 -- -- 77
2020-07-04 07:00:00 11.8 14 Nordeste 18 Nordeste 0 -- -- 81
2020-07-04 06:00:00 12.4 13 Nordeste 19 Este 0 -- -- 80
2020-07-04 05:00:00 13.1 13 Este 20 Este 0 -- -- 75
2020-07-04 04:00:00 14.6 12 Nordeste 23 Nordeste 0 -- -- 63
2020-07-04 03:00:00 16.4 18 Nordeste 29 Nordeste 0 -- -- 47
2020-07-04 02:00:00 19.1 7 Nordeste 10 Nordeste 0 -- -- 39
2020-07-04 01:00:00 20.9 2 Sudeste 14 Noroeste 0 -- -- 34
2020-07-04 00:00:00 21.1 6 Este 8 Sudeste 0 -- -- 36
2020-07-03 23:00:00 22.4 5 Este 6 Este 0 -- -- 33
2020-07-03 22:00:00 24.7 2 Oeste 10 Oeste 0 -- -- 28
2020-07-03 21:00:00 27.5 5 Oeste 10 Oeste 0 -- -- 26
2020-07-03 20:00:00 26.9 8 Nordeste 14 Nordeste 0 -- -- 27
2020-07-03 19:00:00 27.7 7 Sudeste 15 Nordeste 0 -- -- 28
2020-07-03 18:00:00 26.3 9 Norte 16 Nordeste 0 -- -- 28
2020-07-03 17:00:00 25.8 7 Este 21 Este 0 -- -- 31
2020-07-03 16:00:00 24.9 8 Nordeste 23 Nordeste 0 -- -- 34
2020-07-03 15:00:00 23.7 10 Nordeste 26 Nordeste 0 -- -- 36
2020-07-03 14:00:00 22.5 15 Este 29 Este 0 -- -- 42
2020-07-03 13:00:00 20.8 18 Este 35 Este 0 -- -- 47
2020-07-03 12:00:00 19.1 21 Nordeste 33 Este 0 -- -- 53
2020-07-03 11:00:00 17.1 19 Nordeste 33 Este 0 -- -- 60
2020-07-03 10:00:00 15.3 26 Este 35 Nordeste 0 -- -- 65
2020-07-03 09:00:00 13.6 19 Nordeste 35 Nordeste 0 -- -- 71
2020-07-03 08:00:00 11.6 18 Nordeste 32 Nordeste 0 -- -- 80
2020-07-03 07:00:00 10.6 20 Nordeste 30 Nordeste 0 -- -- 84
2020-07-03 06:00:00 10.4 14 Nordeste 25 Este 0 -- -- 85
2020-07-03 05:00:00 10.9 15 Este 23 Nordeste 0 -- -- 83
2020-07-03 04:00:00 11.4 16 Este 27 Este 0 -- -- 80
2020-07-03 03:00:00 12.4 15 Este 31 Este 0 -- -- 76
2020-07-03 02:00:00 13.6 12 Este 27 Este 0 -- -- 72
2020-07-03 01:00:00 14.2 13 Este 23 Nordeste 0 -- -- 72
2020-07-03 00:00:00 14.8 9 Noroeste 18 Noroeste 0 -- -- 59
2020-07-02 23:00:00 16.2 14 Noroeste 20 Noroeste 0 -- -- 55
2020-07-02 22:00:00 18.7 13 Noroeste 28 Oeste 0 -- -- 50
2020-07-02 21:00:00 21.8 20 Oeste 37 Oeste 0 -- -- 37
2020-07-02 20:00:00 23.1 26 Oeste 40 Sudoeste 0 -- -- 36
2020-07-02 19:00:00 24 30 Oeste 44 Oeste 0 -- -- 32
2020-07-02 18:00:00 23.5 29 Oeste 43 Oeste 0 -- -- 35
2020-07-02 17:00:00 23.7 27 Oeste 40 Sudoeste 0 -- -- 37
2020-07-02 16:00:00 23.2 26 Oeste 40 Oeste 0 -- -- 40
2020-07-02 15:00:00 22.5 22 Oeste 57 Oeste 0 -- -- 45
2020-07-02 14:00:00 21.4 21 Oeste 37 Oeste 0 -- -- 50
2020-07-02 13:00:00 20.5 20 Sudoeste 35 Oeste 0 -- -- 55
2020-07-02 12:00:00 20.1 22 Oeste 31 Sudoeste 0 -- -- 58
2020-07-02 11:00:00 18.4 15 Oeste 24 Oeste 0 -- -- 65
2020-07-02 10:00:00 16.8 14 Oeste 22 Oeste 0 -- -- 72
2020-07-02 09:00:00 15.5 13 Oeste 19 Oeste 0 -- -- 79
2020-07-02 08:00:00 13.4 14 Oeste 18 Oeste 0 -- -- 88
2020-07-02 07:00:00 12.2 12 Sudoeste 15 Sudoeste 0 -- -- 90
2020-07-02 06:00:00 12.8 12 Oeste 13 Oeste 0 -- -- 87
2020-07-02 05:00:00 13.2 9 Sudoeste 14 Oeste 0 -- -- 85
2020-07-02 04:00:00 13.8 13 Oeste 17 Oeste 0 -- -- 82
2020-07-02 03:00:00 15 8 Sudoeste 12 Oeste 0 -- -- 77
2020-07-02 02:00:00 16.3 5 Oeste 19 Oeste 0 -- -- 72
2020-07-02 01:00:00 17.5 14 Oeste 27 Oeste 0 -- -- 68
2020-07-02 00:00:00 18.4 20 Oeste 29 Oeste 0 -- -- 66
2020-07-01 23:00:00 20.1 15 Oeste 26 Oeste 0 -- -- 62
2020-07-01 22:00:00 22.2 17 Noroeste 31 Oeste 0 -- -- 55
2020-07-01 21:00:00 25.3 22 Oeste 37 Oeste 0 -- -- 45
2020-07-01 20:00:00 27.1 19 Oeste 40 Oeste 0 -- -- 41
2020-07-01 19:00:00 28.1 29 Oeste 46 Oeste 0 -- -- 39
2020-07-01 18:00:00 28.3 27 Oeste 44 Oeste 0 -- -- 38
2020-07-01 17:00:00 28.3 23 Oeste 42 Sudoeste 0 -- -- 39
2020-07-01 16:00:00 28.3 29 Oeste 43 Oeste 0 -- -- 31
2020-07-01 15:00:00 27.6 28 Oeste 44 Sudoeste 0 -- -- 36
2020-07-01 14:00:00 26.9 29 Oeste 42 Sudoeste 0 -- -- 37
2020-07-01 13:00:00 26 28 Oeste 39 Oeste 0 -- -- 40
2020-07-01 12:00:00 24.3 26 Oeste 35 Oeste 0 -- -- 50
2020-07-01 11:00:00 22.3 22 Oeste 32 Oeste 0 -- -- 60
2020-07-01 10:00:00 20.1 25 Oeste 31 Oeste 0 -- -- 73
2020-07-01 09:00:00 18.5 18 Oeste 26 Oeste 0 -- -- 86
2020-07-01 08:00:00 17.1 16 Oeste 22 Oeste 0 -- -- 92
2020-07-01 07:00:00 16.6 12 Oeste 17 Oeste 0 -- -- 93
2020-07-01 06:00:00 16.9 15 Oeste 18 Oeste 0 -- -- 92
2020-07-01 05:00:00 17.9 16 Oeste 26 Oeste 0 -- -- 89
2020-07-01 04:00:00 18.7 15 Oeste 22 Oeste 0 -- -- 83
2020-07-01 03:00:00 19.7 12 Oeste 17 Sudoeste 0 -- -- 77
2020-07-01 02:00:00 21 8 Oeste 12 Oeste 0 -- -- 67
2020-07-01 01:00:00 22.1 3 Oeste 8 Sudoeste 0 -- -- 63
2020-07-01 00:00:00 23.6 8 Oeste 14 Oeste 0 -- -- 57
2020-06-30 23:00:00 24.6 13 Oeste 20 Noroeste 0 -- -- 50
2020-06-30 22:00:00 26.6 16 Oeste 39 Noroeste 0 -- -- 42
2020-06-30 21:00:00 29.5 17 Oeste 35 Oeste 0 -- -- 32
2020-06-30 20:00:00 32.5 21 Oeste 36 Oeste 0 -- -- 18
2020-06-30 19:00:00 33.3 21 Oeste 39 Sudoeste 0 -- -- 21
2020-06-30 18:00:00 33.2 18 Sudoeste 33 Oeste 0 -- -- 18
2020-06-30 17:00:00 33.1 18 Sudoeste 48 Sudoeste 0 -- -- 25
2020-06-30 16:00:00 32.5 11 Sur 31 Sur 0 -- -- 26
2020-06-30 15:00:00 31.8 13 Sur 31 Sur 0 -- -- 31
2020-06-30 14:00:00 30.2 8 Este 28 Este 0 -- -- 37
2020-06-30 13:00:00 28.5 14 Nordeste 25 Nordeste 0 -- -- 39
2020-06-30 12:00:00 25.9 16 Nordeste 26 Nordeste 0 -- -- 41
2020-06-30 11:00:00 23.5 18 Nordeste 29 Nordeste 0 -- -- 47
2020-06-30 10:00:00 21.6 18 Nordeste 30 Nordeste 0 -- -- 48
2020-06-30 09:00:00 19 20 Nordeste 31 Nordeste 0 -- -- 48
2020-06-30 08:00:00 16.9 22 Nordeste 32 Nordeste 0 -- -- 53
2020-06-30 07:00:00 15.8 21 Nordeste 32 Nordeste 0 -- -- 56
2020-06-30 06:00:00 16.4 23 Nordeste 32 Nordeste 0 -- -- 61
2020-06-30 05:00:00 17 22 Nordeste 30 Nordeste 0 -- -- 69
2020-06-30 04:00:00 18.1 19 Nordeste 27 Nordeste 0 -- -- 77
2020-06-30 03:00:00 19.6 17 Nordeste 27 Nordeste 0 -- -- 70
2020-06-30 02:00:00 20.6 16 Nordeste 28 Nordeste 0 -- -- 65
2020-06-30 01:00:00 22.3 10 Norte 12 Noroeste 0 -- -- 59
2020-06-30 00:00:00 22.8 10 Norte 17 Norte 0 -- -- 56
2020-06-29 23:00:00 25.4 8 Noroeste 10 Noroeste 0 -- -- 43
2020-06-29 22:00:00 26.7 8 Noroeste 9 Noroeste 0 -- -- 40
2020-06-29 21:00:00 29.8 6 Noroeste 13 Noroeste 0 -- -- 38
2020-06-29 20:00:00 30.9 5 Sur 21 Oeste 0 -- -- 36
2020-06-29 19:00:00 31 11 Noroeste 20 Oeste 0 -- -- 35
2020-06-29 18:00:00 30.1 7 Oeste 19 Sudoeste 0 -- -- 35
2020-06-29 17:00:00 29.5 12 Sudoeste 21 Sudoeste 0 -- -- 36
2020-06-29 16:00:00 28.4 8 Noroeste 27 Oeste 0 -- -- 42
2020-06-29 15:00:00 28.2 12 Sur 19 Oeste 0 -- -- 44
2020-06-29 14:00:00 25.5 7 Norte 14 Nordeste 0 -- -- 50
2020-06-29 13:00:00 24.5 9 Norte 17 Este 0 -- -- 55
2020-06-29 12:00:00 22.5 6 Norte 15 Este 0 -- -- 62
2020-06-29 11:00:00 21.1 9 Nordeste 17 Nordeste 0 -- -- 68
2020-06-29 10:00:00 19.3 10 Nordeste 19 Este 0 -- -- 75
2020-06-29 09:00:00 17.5 13 Nordeste 19 Nordeste 0 -- -- 80
2020-06-29 08:00:00 16 8 Nordeste 12 Nordeste 0 -- -- 85
2020-06-29 07:00:00 14.4 4 Norte 6 Oeste 0 -- -- 90
2020-06-29 06:00:00 15.1 4 Oeste 6 Oeste 0 -- -- 86
2020-06-29 05:00:00 14.8 5 Este 8 Este 0 -- -- 87
2020-06-29 04:00:00 15.7 6 Sudoeste 13 Oeste 0 -- -- 83
2020-06-29 03:00:00 15.6 9 Oeste 10 Oeste 0 -- -- 83
2020-06-29 02:00:00 16.5 4 Sudoeste 13 Oeste 0 -- -- 79
2020-06-29 01:00:00 17.6 12 Oeste 22 Oeste 0 -- -- 75
2020-06-29 00:00:00 18.8 14 Oeste 30 Oeste 0 -- -- 70
2020-06-28 23:00:00 20.1 18 Oeste 27 Oeste 0 -- -- 66
2020-06-28 22:00:00 22.1 15 Oeste 32 Oeste 0 -- -- 60
2020-06-28 21:00:00 25 23 Oeste 34 Oeste 0 -- -- 52
2020-06-28 20:00:00 26.6 26 Oeste 38 Oeste 0 -- -- 46
2020-06-28 19:00:00 28.1 24 Oeste 38 Sudoeste 0 -- -- 44
2020-06-28 18:00:00 28.1 24 Sudoeste 38 Oeste 0 -- -- 43
2020-06-28 17:00:00 28.2 22 Sudoeste 36 Sudoeste 0 -- -- 44
2020-06-28 16:00:00 27.5 19 Sudoeste 30 Sudoeste 0 -- -- 44
2020-06-28 15:00:00 26.5 15 Oeste 47 Sudoeste 0 -- -- 47
2020-06-28 14:00:00 25.2 13 Oeste 24 Oeste 0 -- -- 49
2020-06-28 13:00:00 23.5 7 Oeste 20 Oeste 0 -- -- 52
2020-06-28 12:00:00 21.4 12 Oeste 24 Oeste 0 -- -- 64
2020-06-28 11:00:00 19.7 8 Oeste 17 Sudoeste 0 -- -- 70
2020-06-28 10:00:00 17.5 6 Oeste 15 Sudoeste 0 -- -- 81
2020-06-28 09:00:00 15.6 10 Oeste 14 Oeste 0 -- -- 89
2020-06-28 08:00:00 14.5 3 Sudoeste 6 Sudoeste 0 -- -- 90
2020-06-28 07:00:00 13.3 4 Sudoeste 14 Oeste 0 -- -- 94
2020-06-28 06:00:00 13.5 4 Sudoeste 18 Oeste 0 -- -- 94
2020-06-28 05:00:00 14.1 16 Oeste 19 Oeste 0 -- -- 93
2020-06-28 04:00:00 14.4 14 Oeste 18 Oeste 0 -- -- 90
2020-06-28 03:00:00 15.4 10 Oeste 22 Oeste 0 -- -- 88
2020-06-28 02:00:00 15.7 14 Oeste 21 Oeste 0 -- -- 87
2020-06-28 01:00:00 17.2 16 Oeste 24 Oeste 0 -- -- 80
2020-06-28 00:00:00 17.8 15 Oeste 23 Oeste 0 -- -- 78
2020-06-27 23:00:00 19.4 17 Oeste 23 Oeste 0 -- -- 71
2020-06-27 22:00:00 20.7 12 Oeste 22 Oeste 0 -- -- 65
2020-06-27 21:00:00 22.8 21 Oeste 32 Oeste 0 -- -- 58
2020-06-27 20:00:00 24.2 23 Oeste 32 Sudoeste 0 -- -- 53
2020-06-27 19:00:00 24.8 23 Oeste 36 Oeste 0 -- -- 51
2020-06-27 18:00:00 24.7 24 Oeste 37 Oeste 0 -- -- 52
2020-06-27 17:00:00 24.1 22 Oeste 38 Oeste 0 -- -- 52
2020-06-27 16:00:00 22.8 17 Oeste 31 Oeste 0 -- -- 57
2020-06-27 15:00:00 21.1 19 Oeste 31 Oeste 0 -- -- 62
2020-06-27 14:00:00 20.6 18 Oeste 28 Oeste 0 -- -- 62
2020-06-27 13:00:00 19.9 18 Oeste 32 Oeste 0 -- -- 65
2020-06-27 12:00:00 19.3 19 Oeste 28 Oeste 0 -- -- 66
2020-06-27 11:00:00 18.2 15 Oeste 29 Oeste 0 -- -- 71
2020-06-27 10:00:00 17.4 19 Oeste 30 Oeste 0 -- -- 74
2020-06-27 09:00:00 16.3 17 Oeste 23 Sudoeste 0 -- -- 81
2020-06-27 08:00:00 14.9 13 Oeste 18 Oeste 0 -- -- 89
2020-06-27 07:00:00 14.4 12 Oeste 19 Oeste 0 -- -- 89
2020-06-27 06:00:00 14.4 15 Oeste 24 Oeste 0 -- -- 88
2020-06-27 05:00:00 14 15 Sudoeste 31 Oeste 0 -- -- 88
2020-06-27 04:00:00 14.2 28 Oeste 39 Oeste 0 -- -- 88
2020-06-27 03:00:00 14.3 19 Oeste 35 Oeste 0 -- -- 86
2020-06-27 02:00:00 14.8 15 Oeste 23 Oeste 0 -- -- 83
2020-06-27 01:00:00 15.7 15 Sudoeste 32 Oeste 0 -- -- 78
2020-06-27 00:00:00 16.4 23 Oeste 32 Oeste 0 -- -- 75
2020-06-26 23:00:00 17.7 15 Sudoeste 37 Sudoeste 0 -- -- 70
2020-06-26 22:00:00 19.5 25 Oeste 36 Oeste 0 -- -- 62
2020-06-26 21:00:00 22.2 27 Oeste 40 Oeste 0 -- -- 51
2020-06-26 20:00:00 23.9 30 Oeste 47 Oeste 0 -- -- 47
2020-06-26 19:00:00 24.9 31 Oeste 44 Oeste 0 -- -- 40
2020-06-26 18:00:00 24 23 Sudoeste 36 Oeste 0 -- -- 44
2020-06-26 17:00:00 23.7 27 Oeste 41 Oeste 0 -- -- 40
2020-06-26 16:00:00 23.3 26 Oeste 39 Oeste 0 -- -- 41
2020-06-26 15:00:00 23 27 Sudoeste 42 Oeste 0 -- -- 45
2020-06-26 14:00:00 21.9 24 Oeste 36 Oeste 0 -- -- 49
2020-06-26 13:00:00 19.6 22 Sudoeste 33 Sudoeste 0 -- -- 61
2020-06-26 12:00:00 17.4 26 Oeste 38 Sudoeste 0 -- -- 73
2020-06-26 11:00:00 16.7 19 Sudoeste 28 Oeste 0 -- -- 77
2020-06-26 10:00:00 16 12 Sudoeste 22 Sudoeste 0 -- -- 83
2020-06-26 09:00:00 13.9 14 Oeste 29 Oeste 0 -- -- 92
2020-06-26 08:00:00 13.3 19 Oeste 27 Oeste 0 -- -- 95
2020-06-26 07:00:00 12.9 19 Oeste 27 Oeste 0 -- -- 96
2020-06-26 06:00:00 13.3 17 Oeste 25 Oeste 0 -- -- 94
2020-06-26 05:00:00 13.8 18 Oeste 21 Sudoeste 0 -- -- 93
2020-06-26 04:00:00 14.4 15 Oeste 19 Sudoeste 0 -- -- 90
2020-06-26 03:00:00 15.2 18 Oeste 22 Oeste 0 -- -- 88
2020-06-26 02:00:00 16.1 16 Sudoeste 21 Sudoeste 0 -- -- 86
2020-06-26 01:00:00 18 15 Oeste 19 Oeste 0 -- -- 79
2020-06-26 00:00:00 19.7 12 Oeste 18 Oeste 0 -- -- 65
2020-06-25 23:00:00 21.5 15 Oeste 22 Oeste 0 -- -- 53
2020-06-25 22:00:00 23.6 17 Oeste 23 Oeste 0 -- -- 46
2020-06-25 21:00:00 26.5 17 Oeste 33 Oeste 0 -- -- 41
2020-06-25 20:00:00 27.9 25 Oeste 39 Sudoeste 0 -- -- 37
2020-06-25 19:00:00 28.2 24 Oeste 41 Oeste 0 -- -- 38
2020-06-25 18:00:00 28.7 24 Oeste 49 Oeste 0 -- -- 40
2020-06-25 17:00:00 28.2 19 Sudoeste 38 Oeste 0 -- -- 42
2020-06-25 16:00:00 28.1 22 Sudoeste 36 Sudoeste 0 -- -- 44
2020-06-25 15:00:00 27.6 19 Oeste 33 Oeste 0 -- -- 46
2020-06-25 14:00:00 26.6 19 Sudoeste 31 Sudoeste 0 -- -- 50
2020-06-25 13:00:00 25 20 Sudoeste 36 Sudoeste 0 -- -- 57
2020-06-25 12:00:00 23.9 15 Sudoeste 23 Sudoeste 0 -- -- 63
2020-06-25 11:00:00 22 7 Este 17 Este 0 -- -- 68
2020-06-25 10:00:00 20 10 Este 19 Este 0 -- -- 76
2020-06-25 09:00:00 18.4 9 Este 13 Sudeste 0 -- -- 78
2020-06-25 08:00:00 16.1 10 Nordeste 18 Nordeste 0 -- -- 85
2020-06-25 07:00:00 15.1 17 Norte 22 Nordeste 0 -- -- 89
2020-06-25 06:00:00 16 15 Nordeste 21 Nordeste 0 -- -- 87
2020-06-25 05:00:00 16 13 Nordeste 22 Nordeste 0 -- -- 87
2020-06-25 04:00:00 16.4 13 Nordeste 22 Este 0 -- -- 85
2020-06-25 03:00:00 16.2 13 Este 21 Este 0 -- -- 85
2020-06-25 02:00:00 16.4 16 Este 27 Este 0 -- -- 84
2020-06-25 01:00:00 17.5 19 Este 26 Este 0 -- -- 75
2020-06-25 00:00:00 18 15 Nordeste 31 Nordeste 0 -- -- 72
2020-06-24 23:00:00 17.9 21 Nordeste 28 Nordeste 0 -- -- 76
2020-06-24 22:00:00 19.1 13 Norte 20 Noroeste 0 -- -- 71
2020-06-24 21:00:00 19.3 15 Norte 22 Noroeste 0 -- -- 73
2020-06-24 20:00:00 19.5 17 Sudeste 27 Sudeste 0 -- -- 70
2020-06-24 19:00:00 18.9 16 Sudeste 30 Sudeste 0 -- -- 75
2020-06-24 18:00:00 17.9 8 Nordeste 36 Sur 10.2 -- -- 81
2020-06-24 17:00:00 19.2 37 Este 74 Sudeste 0 -- -- 67
2020-06-24 16:00:00 30.5 4 Sudeste 19 Sudoeste 0 -- -- 38
2020-06-24 15:00:00 27.6 16 Oeste 27 Sudoeste 0 -- -- 46
2020-06-24 14:00:00 26.7 5 Sudoeste 15 Sudoeste 0 -- -- 48
2020-06-24 13:00:00 -- 5 Sur 17 Sur 0.2 -- -- --
2020-06-24 12:00:00 22 8 Norte 16 Sudoeste 17.4 -- -- 67
2020-06-24 11:00:00 23.9 3 Nordeste 16 Nordeste 0 -- -- 51
2020-06-24 10:00:00 23.1 6 Nordeste 23 Este 0 -- -- 51
2020-06-24 09:00:00 21.6 6 Sudeste 14 Nordeste 0 -- -- 53
2020-06-24 08:00:00 18.9 10 Norte 14 Nordeste 0 -- -- 60
2020-06-24 07:00:00 18.5 12 Nordeste 16 Nordeste 0 -- -- 59
2020-06-24 06:00:00 19 13 Nordeste 16 Nordeste 0 -- -- 56
2020-06-24 05:00:00 19.8 12 Nordeste 17 Nordeste 0 -- -- 49
2020-06-24 04:00:00 21.6 9 Nordeste 20 Nordeste 0 -- -- 42
2020-06-24 03:00:00 21.2 12 Nordeste 20 Nordeste 0 -- -- 44
2020-06-24 02:00:00 21.5 15 Norte 17 Norte 0 -- -- 42
2020-06-24 01:00:00 24.5 6 Nordeste 18 Oeste 0 -- -- 34
2020-06-24 00:00:00 24.6 5 Este 16 Nordeste 0 -- -- 33
2020-06-23 23:00:00 25.9 9 Norte 15 Norte 0 -- -- 33
2020-06-23 22:00:00 27 12 Norte 22 Noroeste 0 -- -- 31
2020-06-23 21:00:00 29.3 15 Oeste 26 Oeste 0 -- -- 27
2020-06-23 20:00:00 32.6 12 Oeste 21 Oeste 0 -- -- 22
2020-06-23 19:00:00 35 12 Oeste 42 Oeste 0 -- -- 21
2020-06-23 18:00:00 34.1 6 Sudeste 18 Sur 0 -- -- 22
2020-06-23 17:00:00 34.7 11 Sur 22 Sudeste 0 -- -- 22
2020-06-23 16:00:00 33.1 8 Este 23 Sudeste 0 -- -- 26
2020-06-23 15:00:00 32.8 5 Este 15 Sur 0 -- -- 28
2020-06-23 14:00:00 31.2 9 Sudeste 20 Nordeste 0 -- -- 31
2020-06-23 13:00:00 29.2 14 Nordeste 24 Este 0 -- -- 36
2020-06-23 12:00:00 26.8 13 Este 22 Nordeste 0 -- -- 40
2020-06-23 11:00:00 24.7 15 Este 25 Nordeste 0 -- -- 45
2020-06-23 10:00:00 22.3 17 Nordeste 27 Nordeste 0 -- -- 50
2020-06-23 09:00:00 20.1 19 Nordeste 28 Nordeste 0 -- -- 56
2020-06-23 08:00:00 18.1 20 Nordeste 28 Nordeste 0 -- -- 62
2020-06-23 07:00:00 17.2 17 Nordeste 32 Nordeste 0 -- -- 69
2020-06-23 06:00:00 17.4 23 Nordeste 32 Nordeste 0 -- -- 70
2020-06-23 05:00:00 18 19 Nordeste 30 Nordeste 0 -- -- 67
2020-06-23 04:00:00 18.8 13 Nordeste 31 Nordeste 0 -- -- 61
2020-06-23 03:00:00 20.1 19 Nordeste 32 Nordeste 0 -- -- 54
2020-06-23 02:00:00 21 17 Nordeste 27 Nordeste 0 -- -- 48
2020-06-23 01:00:00 22.1 13 Nordeste 22 Nordeste 0 -- -- 42
2020-06-23 00:00:00 23.4 18 Nordeste 27 Nordeste 0 -- -- 35
2020-06-22 23:00:00 24.6 15 Nordeste 21 Norte 0 -- -- 33
2020-06-22 22:00:00 25.8 14 Norte 18 Nordeste 0 -- -- 33
2020-06-22 21:00:00 29 9 Nordeste 21 Nordeste 0 -- -- 29
2020-06-22 20:00:00 30.5 12 Nordeste 21 Nordeste 0 -- -- 26
2020-06-22 19:00:00 31.3 12 Norte 24 Nordeste 0 -- -- 24
2020-06-22 18:00:00 30.8 14 Nordeste 26 Nordeste 0 -- -- 27
2020-06-22 17:00:00 30.4 11 Nordeste 27 Este 0 -- -- 29
2020-06-22 16:00:00 29.8 13 Este 28 Nordeste 0 -- -- 30
2020-06-22 15:00:00 28.6 19 Este 34 Este 0 -- -- 33
2020-06-22 14:00:00 27.2 17 Nordeste 32 Nordeste 0 -- -- 39
2020-06-22 13:00:00 25.7 22 Este 39 Nordeste 0 -- -- 46
2020-06-22 12:00:00 23.3 23 Nordeste 32 Este 0 -- -- 54
2020-06-22 11:00:00 20.7 21 Nordeste 31 Nordeste 0 -- -- 63
2020-06-22 10:00:00 18.5 24 Este 32 Este 0 -- -- 72
2020-06-22 09:00:00 17 18 Nordeste 33 Nordeste 0 -- -- 77
2020-06-22 08:00:00 15.3 17 Nordeste 30 Nordeste 0 -- -- 82
2020-06-22 07:00:00 14.1 16 Nordeste 33 Nordeste 0 -- -- 87
2020-06-22 06:00:00 14.4 21 Nordeste 39 Nordeste 0 -- -- 86
2020-06-22 05:00:00 14.9 22 Nordeste 33 Nordeste 0 -- -- 84
2020-06-22 04:00:00 15.6 21 Nordeste 35 Nordeste 0 -- -- 81
2020-06-22 03:00:00 16.7 21 Nordeste 37 Nordeste 0 -- -- 76
2020-06-22 02:00:00 17.6 15 Nordeste 44 Nordeste 0 -- -- 72
2020-06-22 01:00:00 19.4 21 Nordeste 31 Nordeste 0 -- -- 65
2020-06-22 00:00:00 19.9 9 Norte 13 Noroeste 0 -- -- 65
2020-06-21 23:00:00 21 9 Noroeste 15 Oeste 0 -- -- 63
2020-06-21 22:00:00 23.2 12 Oeste 24 Oeste 0 -- -- 56
2020-06-21 21:00:00 26.1 18 Oeste 27 Sudoeste 0 -- -- 48
2020-06-21 20:00:00 28.1 18 Oeste 26 Oeste 0 -- -- 43
2020-06-21 19:00:00 29.2 12 Oeste 25 Sudoeste 0 -- -- 36
2020-06-21 18:00:00 28.7 19 Oeste 29 Oeste 0 -- -- 35
2020-06-21 17:00:00 28.4 10 Oeste 21 Sudoeste 0 -- -- 33
2020-06-21 16:00:00 27.3 10 Oeste 24 Sudoeste 0 -- -- 33
2020-06-21 15:00:00 25.9 9 Noroeste 28 Oeste 0 -- -- 32
2020-06-21 14:00:00 24.7 8 Oeste 22 Oeste 0 -- -- 41
2020-06-21 13:00:00 22.7 14 Oeste 23 Sudoeste 0 -- -- 45
2020-06-21 12:00:00 20.5 12 Oeste 22 Oeste 0 -- -- 51
2020-06-21 11:00:00 18.3 11 Oeste 18 Oeste 0 -- -- 58
2020-06-21 10:00:00 15.8 9 Sudoeste 21 Oeste 0 -- -- 68
2020-06-21 09:00:00 13.8 15 Sudoeste 23 Sudoeste 0 -- -- 77
2020-06-21 08:00:00 11.6 10 Sudoeste 17 Sudoeste 0 -- -- 81
2020-06-21 07:00:00 10.2 14 Oeste 19 Oeste 0 -- -- 84
2020-06-21 06:00:00 10.4 14 Sudoeste 17 Oeste 0 -- -- 83
2020-06-21 05:00:00 10.9 12 Sudoeste 19 Sudoeste 0 -- -- 87
2020-06-21 04:00:00 12.8 13 Sudoeste 16 Sudoeste 0 -- -- 83
2020-06-21 03:00:00 13.7 10 Sudoeste 18 Oeste 0 -- -- 80
2020-06-21 02:00:00 15 14 Oeste 24 Oeste 0 -- -- 74
2020-06-21 01:00:00 16.3 21 Oeste 26 Oeste 0 -- -- 68
2020-06-21 00:00:00 17.4 13 Oeste 27 Oeste 0 -- -- 61
2020-06-20 23:00:00 19.2 12 Oeste 22 Oeste 0 -- -- 50
2020-06-20 22:00:00 21.4 20 Oeste 35 Oeste 0 -- -- 38
2020-06-20 21:00:00 24.5 24 Oeste 38 Oeste 0 -- -- 33
2020-06-20 20:00:00 26.7 27 Oeste 36 Oeste 0 -- -- 32
2020-06-20 19:00:00 27.6 23 Oeste 42 Oeste 0 -- -- 29
2020-06-20 18:00:00 27.2 22 Oeste 38 Sudoeste 0 -- -- 29
2020-06-20 17:00:00 27.1 26 Sudoeste 40 Sudoeste 0 -- -- 29
2020-06-20 16:00:00 26.8 22 Oeste 33 Oeste 0 -- -- 34
2020-06-20 15:00:00 25.6 15 Oeste 27 Sudoeste 0 -- -- 35
2020-06-20 14:00:00 24.5 11 Sudoeste 23 Sudoeste 0 -- -- 39
2020-06-20 13:00:00 23.1 3 Sudeste 15 Oeste 0 -- -- 45
2020-06-20 12:00:00 21.2 9 Sudoeste 16 Sudoeste 0 -- -- 48
2020-06-20 11:00:00 19.9 2 Sudeste 7 Sudoeste 0 -- -- 54
2020-06-20 10:00:00 17.8 3 Sudoeste 7 Este 0 -- -- 61
2020-06-20 09:00:00 16.1 4 Este 6 Este 0 -- -- 67
2020-06-20 08:00:00 13.5 2 Noroeste 6 Nordeste 0 -- -- 75
2020-06-20 07:00:00 11.5 3 Nordeste 8 Oeste 0 -- -- 81
2020-06-20 06:00:00 12.2 7 Oeste 12 Oeste 0 -- -- 78
2020-06-20 05:00:00 12.7 3 Sur 9 Sudeste 0 -- -- 74
2020-06-20 04:00:00 13.3 3 Sudeste 18 Oeste 0 -- -- 70
2020-06-20 03:00:00 14.2 14 Oeste 16 Oeste 0 -- -- 68
2020-06-20 02:00:00 14.5 9 Sudoeste 18 Oeste 0 -- -- 65
2020-06-20 01:00:00 15.9 15 Oeste 17 Oeste 0 -- -- 59
2020-06-20 00:00:00 16.9 14 Oeste 22 Oeste 0 -- -- 56
2020-06-19 23:00:00 18.8 16 Noroeste 22 Oeste 0 -- -- 50
2020-06-19 22:00:00 20.5 11 Noroeste 20 Noroeste 0 -- -- 46
2020-06-19 21:00:00 23.8 12 Noroeste 32 Oeste 0 -- -- 37
2020-06-19 20:00:00 25 19 Oeste 36 Oeste 0 -- -- 32
2020-06-19 19:00:00 26.1 20 Oeste 34 Oeste 0 -- -- 30
2020-06-19 18:00:00 25.3 19 Oeste 36 Sudoeste 0 -- -- 31
2020-06-19 17:00:00 24.9 20 Sudoeste 31 Oeste 0 -- -- 33
2020-06-19 16:00:00 24.4 17 Oeste 30 Oeste 0 -- -- 24
2020-06-19 15:00:00 23.5 16 Oeste 27 Oeste 0 -- -- 26
2020-06-19 14:00:00 21.7 13 Oeste 27 Oeste 0 -- -- 39
2020-06-19 13:00:00 20.4 13 Sudoeste 21 Sudoeste 0 -- -- 48
2020-06-19 12:00:00 18.4 10 Oeste 21 Sudoeste 0 -- -- 55
2020-06-19 11:00:00 16.6 4 Sudoeste 12 Sudoeste 0 -- -- 64
2020-06-19 10:00:00 15.5 3 Sur 9 Nordeste 0 -- -- 70
2020-06-19 09:00:00 14.1 5 Este 9 Este 0 -- -- 73
2020-06-19 08:00:00 12.2 0 Calma 6 Sudeste 0 -- -- 78
2020-06-19 07:00:00 10.4 4 Sudeste 8 Este 0 -- -- 83
2020-06-19 06:00:00 10.3 6 Nordeste 11 Nordeste 0 -- -- 82
2020-06-19 05:00:00 11.2 9 Nordeste 12 Nordeste 0 -- -- 73
2020-06-19 04:00:00 12.5 6 Noroeste 8 Noroeste 0 -- -- 67
2020-06-19 03:00:00 11.2 5 Nordeste 13 Oeste 0 -- -- 72
2020-06-19 02:00:00 12.7 12 Oeste 17 Oeste 0 -- -- 67
2020-06-19 01:00:00 14 14 Oeste 21 Oeste 0 -- -- 62
2020-06-19 00:00:00 15.1 16 Oeste 21 Oeste 0 -- -- 58
2020-06-18 23:00:00 16.2 14 Oeste 18 Noroeste 0 -- -- 52
2020-06-18 22:00:00 18.3 13 Noroeste 23 Oeste 0 -- -- 45
2020-06-18 21:00:00 21.8 16 Oeste 29 Oeste 0 -- -- 36
2020-06-18 20:00:00 23 21 Oeste 33 Oeste 0 -- -- 32
2020-06-18 19:00:00 24 16 Oeste 34 Oeste 0 -- -- 32
2020-06-18 18:00:00 23.3 14 Oeste 30 Oeste 0 -- -- 33
2020-06-18 17:00:00 23.2 16 Oeste 32 Oeste 0 -- -- 38
2020-06-18 16:00:00 22.2 15 Oeste 28 Oeste 0 -- -- 41
2020-06-18 15:00:00 21.5 9 Oeste 21 Oeste 0 -- -- 44
2020-06-18 14:00:00 19.5 8 Sudoeste 22 Oeste 0 -- -- 51
2020-06-18 13:00:00 19.8 9 Sudoeste 16 Sudoeste 0 -- -- 51
2020-06-18 12:00:00 19.4 8 Sur 14 Sur 0 -- -- 54
2020-06-18 11:00:00 16.3 8 Este 16 Este 0 -- -- 63
2020-06-18 10:00:00 14.6 11 Nordeste 22 Nordeste 0 -- -- 71
2020-06-18 09:00:00 12.8 12 Nordeste 18 Nordeste 0 -- -- 80
2020-06-18 08:00:00 10.9 11 Nordeste 17 Nordeste 0 -- -- 86
2020-06-18 07:00:00 9.5 10 Nordeste 13 Nordeste 0 -- -- 89
2020-06-18 06:00:00 10 9 Nordeste 12 Nordeste 0 -- -- 86
2020-06-18 05:00:00 10.3 9 Nordeste 13 Nordeste 0 -- -- 81
2020-06-18 04:00:00 11.1 10 Nordeste 16 Nordeste 0 -- -- 77
2020-06-18 03:00:00 12.2 11 Nordeste 17 Nordeste 0 -- -- 74
2020-06-18 02:00:00 12.6 9 Nordeste 10 Nordeste 0 -- -- 73
2020-06-18 01:00:00 13.6 3 Este 13 Noroeste 0 -- -- 68
2020-06-18 00:00:00 14.5 11 Noroeste 17 Noroeste 0 -- -- 63
2020-06-17 23:00:00 15.6 12 Noroeste 21 Oeste 0 -- -- 60
2020-06-17 22:00:00 16.8 15 Oeste 26 Oeste 0 -- -- 54
2020-06-17 21:00:00 19.6 19 Oeste 27 Sudoeste 0 -- -- 44
2020-06-17 20:00:00 20.8 18 Oeste 31 Oeste 0 -- -- 40
2020-06-17 19:00:00 20.5 18 Oeste 32 Oeste 0 -- -- 41
2020-06-17 18:00:00 21 17 Oeste 33 Oeste 0 -- -- 40
2020-06-17 17:00:00 19.9 6 Sudoeste 26 Sudoeste 0 -- -- 43
2020-06-17 16:00:00 21.1 17 Oeste 28 Oeste 0 -- -- 41
2020-06-17 15:00:00 20.4 10 Oeste 21 Sudoeste 0 -- -- 44
2020-06-17 14:00:00 17.7 9 Sudoeste 19 Sudoeste 0 -- -- 52
2020-06-17 13:00:00 17.2 4 Noroeste 13 Sur 0 -- -- 55
2020-06-17 12:00:00 15.9 3 Norte 17 Este 0 -- -- 60
2020-06-17 11:00:00 15.4 4 Nordeste 13 Este 0 -- -- 64
2020-06-17 10:00:00 13.7 2 Sudeste 9 Sudeste 0 -- -- 73
2020-06-17 09:00:00 10.9 5 Sudoeste 9 Oeste 0 -- -- 87
2020-06-17 08:00:00 9.1 6 Oeste 9 Oeste 0 -- -- 93
2020-06-17 07:00:00 8.1 6 Oeste 15 Oeste 0 -- -- 94
2020-06-17 06:00:00 8.2 14 Oeste 17 Oeste 0 -- -- 94
2020-06-17 05:00:00 8.1 12 Oeste 18 Oeste 0 -- -- 92
2020-06-17 04:00:00 9.1 16 Oeste 19 Oeste 0 -- -- 90
2020-06-17 03:00:00 9.6 15 Oeste 20 Oeste 0 -- -- 86
2020-06-17 02:00:00 11 17 Oeste 23 Oeste 0 -- -- 79
2020-06-17 01:00:00 12.1 17 Oeste 31 Oeste 0 -- -- 73
2020-06-17 00:00:00 12.2 15 Oeste 24 Oeste 0 -- -- 70
2020-06-16 23:00:00 13.9 19 Oeste 25 Oeste 0 -- -- 62
2020-06-16 22:00:00 15.1 15 Oeste 29 Oeste 0 -- -- 59
2020-06-16 21:00:00 17.9 21 Oeste 38 Oeste 0 -- -- 51
2020-06-16 20:00:00 18.8 28 Oeste 40 Oeste 0 -- -- 51
2020-06-16 19:00:00 20 28 Oeste 48 Oeste 0 -- -- 49
2020-06-16 18:00:00 20.1 32 Oeste 50 Oeste 0 -- -- 48
2020-06-16 17:00:00 20.3 34 Oeste 51 Oeste 0 -- -- 49
2020-06-16 16:00:00 20.1 38 Sudoeste 54 Oeste 0 -- -- 52
2020-06-16 15:00:00 19.4 34 Oeste 49 Oeste 0 -- -- 56
2020-06-16 14:00:00 18.6 35 Oeste 46 Oeste 0 -- -- 58
2020-06-16 13:00:00 17.9 30 Oeste 40 Oeste 0 -- -- 62
2020-06-16 12:00:00 17.4 27 Oeste 38 Oeste 0 -- -- 63
2020-06-16 11:00:00 15.6 22 Oeste 32 Oeste 0 -- -- 70
2020-06-16 10:00:00 14.4 16 Oeste 27 Sudoeste 0 -- -- 76
2020-06-16 09:00:00 12.6 17 Oeste 26 Oeste 0 -- -- 86
2020-06-16 08:00:00 10.6 10 Oeste 17 Oeste 0 -- -- 92
2020-06-16 07:00:00 9.8 13 Oeste 14 Oeste 0 -- -- 92
2020-06-16 06:00:00 10.4 12 Oeste 17 Oeste 0 -- -- 91
2020-06-16 05:00:00 10.9 10 Oeste 17 Oeste 0 -- -- 89
2020-06-16 04:00:00 11.1 11 Oeste 24 Oeste 0 -- -- 88
2020-06-16 03:00:00 11.5 16 Oeste 23 Oeste 0 -- -- 86
2020-06-16 02:00:00 12 20 Oeste 25 Oeste 0 -- -- 84
2020-06-16 01:00:00 12.7 17 Oeste 29 Oeste 0 -- -- 81
2020-06-16 00:00:00 13 21 Oeste 28 Oeste 0 -- -- 79
2020-06-15 23:00:00 13.5 23 Oeste 31 Oeste 0 -- -- 76
2020-06-15 22:00:00 14.1 23 Oeste 35 Oeste 0 -- -- 71
2020-06-15 21:00:00 15 27 Oeste 36 Oeste 0 -- -- 66
2020-06-15 20:00:00 16 27 Oeste 39 Oeste 0 -- -- 62
2020-06-15 19:00:00 16.9 32 Oeste 41 Oeste 0 -- -- 58
2020-06-15 18:00:00 18.2 29 Oeste 46 Oeste 0 -- -- 55
2020-06-15 17:00:00 19.1 30 Oeste 42 Oeste 0 -- -- 51
2020-06-15 16:00:00 18.8 25 Oeste 38 Oeste 0 -- -- 52
2020-06-15 15:00:00 19.1 20 Oeste 36 Oeste 0 -- -- 52
2020-06-15 14:00:00 18.8 19 Oeste 31 Oeste 0 -- -- 55
2020-06-15 13:00:00 17.2 15 Sudoeste 29 Oeste 0 -- -- 57
2020-06-15 12:00:00 16.2 13 Sudoeste 23 Oeste 0 -- -- 60
2020-06-15 11:00:00 15 13 Oeste 21 Oeste 0 -- -- 67
2020-06-15 10:00:00 13.6 12 Oeste 20 Sudoeste 0 -- -- 74
2020-06-15 09:00:00 12.1 10 Oeste 15 Oeste 0 -- -- 82
2020-06-15 08:00:00 10.6 7 Oeste 13 Oeste 0 -- -- 90
2020-06-15 07:00:00 9.8 9 Oeste 11 Sudoeste 0 -- -- 92
2020-06-15 06:00:00 9.8 10 Oeste 12 Oeste 0 -- -- 90
2020-06-15 05:00:00 10.2 9 Oeste 12 Oeste 0 -- -- 89
2020-06-15 04:00:00 10.5 8 Oeste 10 Oeste 0 -- -- 87
2020-06-15 03:00:00 11.1 4 Sudoeste 21 Noroeste 0 -- -- 85
2020-06-15 02:00:00 11.6 14 Oeste 20 Noroeste 0 -- -- 83
2020-06-15 01:00:00 12 10 Oeste 15 Oeste 0 -- -- 81
2020-06-15 00:00:00 12.8 10 Oeste 13 Oeste 0 -- -- 78